Latest Weather Observations for Alva Beach

IDQ60801

Issued at 9:52 pm EST Tuesday 4 August 2020 (issued every 10 minutes, with the page automatically refreshed every 10 minutes)

About weather observations | Map of weather stations | Latest weather observations for QLD | Other Formats
Station Details ID: 033295 Name: ALVA BEACH Lat: -19.46 Lon: 147.48 Height: 7.5 m
Data from the previous 72 hours. | See also: Recent months at Alva Beach
Date/Time
EST
Temp
°C
App
Temp
°C
Dew
Point
°C
Rel
Hum
%
Delta-T
°C
Wind Press
QNH
hPa
Press
MSL
hPa
Rain since
9am
mm
Dir  Spd
km/h
Gust
km/h
Spd
kts
Gust
kts
04/09:30pm 20.3 21.4 18.1 87 1.4 ENE 9 13 5 7 1015.3 1015.3 0.0
04/09:00pm 21.2 22.3 18.8 86 1.5 ENE 11 13 6 7 1015.2 1015.2 0.0
04/08:30pm 21.2 22.2 18.6 85 1.6 E 11 15 6 8 1015.1 1015.1 0.0
04/08:00pm 21.0 21.7 18.9 88 1.3 E 13 15 7 8 1014.8 1014.8 0.0
04/07:30pm 20.8 21.4 18.6 87 1.4 ENE 13 17 7 9 1014.3 1014.3 0.0
04/07:00pm 20.8 21.8 18.6 87 1.4 ENE 11 13 6 7 1014.0 1014.0 0.0
04/06:30pm 20.8 22.1 18.4 86 1.5 E 9 11 5 6 1013.7 1013.7 0.0
04/06:00pm 21.0 21.9 18.4 85 1.6 ENE 11 13 6 7 1013.4 1013.4 0.0
04/05:30pm 21.2 22.5 18.4 84 1.7 E 9 13 5 7 1013.3 1013.3 0.0
04/05:00pm 21.5 22.0 18.3 82 2.0 ENE 13 15 7 8 1012.9 1012.9 0.0
04/04:30pm 21.9 22.7 18.1 79 2.4 E 11 15 6 8 1012.8 1012.8 0.0
04/04:00pm 22.1 22.5 18.1 78 2.5 E 13 17 7 9 1012.8 1012.8 0.0
04/03:30pm 23.0 24.3 18.5 76 2.8 ESE 9 13 5 7 1012.9 1012.9 0.0
04/03:00pm 23.1 24.0 18.4 75 3.0 ESE 11 17 6 9 1013.1 1013.1 0.0
04/02:30pm 23.1 23.5 18.2 74 3.1 ESE 13 17 7 9 1013.6 1013.6 0.0
04/02:00pm 23.4 24.4 18.7 75 3.0 ESE 11 17 6 9 1013.9 1013.9 0.0
04/01:30pm 23.2 24.3 18.1 73 3.2 ESE 9 15 5 8 1014.4 1014.4 0.0
04/01:00pm 23.2 24.1 18.5 75 3.0 ESE 11 17 6 9 1014.6 1014.6 0.0
04/12:30pm 23.0 23.5 18.3 75 2.9 ESE 13 17 7 9 1015.1 1015.1 0.0
04/12:00pm 23.0 23.9 18.3 75 2.9 ESE 11 15 6 8 1015.5 1015.5 0.0
04/11:30am 22.5 22.8 17.8 75 2.9 ESE 13 19 7 10 1016.0 1016.0 0.0
04/11:00am 22.1 22.3 17.7 76 2.7 ESE 13 20 7 11 1016.2 1016.2 0.0
04/10:30am 22.5 22.9 18.1 76 2.7 ESE 13 19 7 10 1016.5 1016.5 0.0
04/10:00am 22.1 22.8 17.9 77 2.6 ESE 11 19 6 10 1016.8 1016.8 0.0
04/09:30am 21.2 21.8 17.8 81 2.1 S 11 15 6 8 1016.8 1016.8 0.0
04/09:00am 19.6 20.2 16.8 84 1.7 SSW 9 17 5 9 1016.8 1016.8 0.0
04/08:30am 19.2 20.3 17.0 87 1.3 SSE 7 15 4 8 1016.3 1016.3 0.0
04/08:00am 17.2 17.9 16.2 94 0.6 S 7 11 4 6 1015.7 1015.7 0.0
04/07:30am 15.7 16.1 15.2 97 0.3 SSW 7 9 4 5 1015.8 1015.8 0.0
04/07:00am 14.9 15.0 14.4 97 0.3 SSW 7 9 4 5 1015.7 1015.7 0.0
04/06:30am 15.0 14.7 14.4 96 0.3 SW 9 11 5 6 1015.5 1015.5 0.0
04/06:00am 15.1 15.2 14.5 96 0.3 SW 7 9 4 5 1015.3 1015.3 0.0
04/05:30am 15.5 15.3 14.7 95 0.5 SSW 9 13 5 7 1015.1 1015.1 0.0
04/05:00am 16.0 16.4 15.4 96 0.3 S 7 15 4 8 1014.8 1014.8 0.0
04/04:30am 15.6 15.8 14.8 95 0.5 SSW 7 11 4 6 1014.8 1014.8 0.0
04/04:00am 16.0 16.3 15.0 94 0.6 SSW 7 9 4 5 1014.7 1014.7 0.0
04/03:30am 16.9 17.5 15.8 93 0.6 SSE 7 17 4 9 1014.7 1014.7 0.0
04/03:00am 16.6 17.2 15.8 95 0.5 S 7 13 4 7 1014.9 1014.9 0.0
04/02:30am 16.0 16.5 15.0 94 0.6 SW 6 7 3 4 1015.1 1015.1 0.0
04/02:00am 16.2 16.7 15.1 93 0.6 SW 6 7 3 4 1015.3 1015.3 0.0
04/01:30am 16.6 17.0 15.3 92 0.8 SW 7 9 4 5 1015.5 1015.5 0.0
04/01:00am 17.3 18.0 15.6 90 1.0 SW 6 9 3 5 1015.8 1015.8 0.0
04/12:30am 19.5 19.3 16.7 84 1.7 SE 13 22 7 12 1016.1 1016.1 0.0
04/12:00am 19.9 20.3 17.3 85 1.6 SSE 11 19 6 10 1016.3 1016.3 0.0
 
Date/Time
EST
Temp
°C
App
Temp
°C
Dew
Point
°C
Rel
Hum
%
Delta-T
°C
Wind Press
QNH
hPa
Press
MSL
hPa
Rain since
9am
mm
Dir  Spd
km/h
Gust
km/h
Spd
kts
Gust
kts
03/11:30pm 20.4 20.0 18.0 86 1.5 ESE 17 24 9 13 1016.3 1016.3 0.0
03/11:00pm 20.4 20.0 18.0 86 1.5 ESE 17 28 9 15 1016.3 1016.3 0.0
03/10:30pm 20.4 19.4 18.0 86 1.5 ESE 20 32 11 17 1016.0 1016.0 0.0
03/10:00pm 20.6 19.6 18.0 85 1.6 ESE 20 32 11 17 1016.1 1016.1 0.0
03/09:30pm 20.5 19.5 17.5 83 1.8 ESE 19 28 10 15 1016.1 1016.1 0.0
03/09:00pm 20.7 19.8 17.7 83 1.8 ESE 19 26 10 14 1016.0 1016.0 0.0
03/08:30pm 20.7 20.3 18.1 85 1.6 ESE 17 26 9 14 1015.8 1015.8 0.0
03/08:00pm 20.7 19.8 18.1 85 1.6 E 20 32 11 17 1015.5 1015.5 0.0
03/07:30pm 20.8 19.1 18.2 85 1.6 E 24 33 13 18 1015.3 1015.3 0.0
03/07:00pm 20.8 18.1 17.6 82 2.0 E 28 37 15 20 1014.9 1014.9 0.0
03/06:30pm 20.8 18.5 17.6 82 2.0 E 26 35 14 19 1014.7 1014.7 0.0
03/06:00pm 21.0 18.2 18.2 84 1.7 E 30 37 16 20 1014.4 1014.4 0.0
03/05:30pm 21.1 19.0 18.1 83 1.9 E 26 35 14 19 1014.2 1014.2 0.0
03/05:00pm 21.4 19.3 18.0 81 2.1 E 26 35 14 19 1014.1 1014.1 0.0
03/04:30pm 21.7 19.8 17.7 78 2.5 E 24 35 13 19 1014.2 1014.2 0.0
03/04:00pm 22.1 21.0 17.7 76 2.7 E 20 32 11 17 1014.2 1014.2 0.0
03/03:30pm 22.5 21.4 17.8 75 2.9 E 20 30 11 16 1014.2 1014.2 0.0
03/03:00pm 22.6 20.9 17.1 71 3.4 E 22 30 12 16 1014.3 1014.3 0.0
03/02:30pm 22.8 21.2 17.5 72 3.3 E 22 30 12 16 1014.6 1014.6 0.0
03/02:00pm 22.3 21.0 17.2 73 3.1 E 20 28 11 15 1015.1 1015.1 0.0
03/01:30pm 22.9 21.7 17.1 70 3.6 E 19 28 10 15 1015.7 1015.7 0.0
03/01:00pm 23.2 22.5 17.4 70 3.6 ESE 17 26 9 14 1016.4 1016.4 0.0
03/12:30pm 23.1 22.7 17.1 69 3.7 ESE 15 22 8 12 1017.0 1017.0 0.0
03/12:00pm 23.0 22.8 17.5 71 3.4 ESE 15 22 8 12 1017.5 1017.5 0.0
03/11:30am 22.4 22.0 17.1 72 3.3 ESE 15 24 8 13 1017.7 1017.7 0.0
03/11:00am 22.3 21.0 16.8 71 3.4 ESE 19 26 10 14 1018.0 1018.0 0.0
03/10:30am 22.0 21.2 17.2 74 2.9 ESE 17 26 9 14 1018.1 1018.1 0.0
03/10:00am 20.9 19.9 16.5 76 2.7 SE 17 28 9 15 1018.3 1018.3 0.0
03/09:30am 20.4 19.2 16.2 77 2.5 SE 17 24 9 13 1018.7 1018.7 0.0
03/09:00am 20.6 19.7 16.8 79 2.3 SE 17 28 9 15 1018.5 1018.5 0.0
03/08:30am 19.9 19.3 16.7 82 1.9 SE 15 24 8 13 1018.2 1018.2 0.0
03/08:00am 19.6 18.5 16.4 82 1.9 SE 17 30 9 16 1017.8 1017.8 0.0
03/07:30am 19.9 18.4 16.3 80 2.2 SE 19 30 10 16 1017.5 1017.5 0.0
03/07:00am 19.4 17.9 16.2 82 1.9 SE 19 32 10 17 1017.1 1017.1 0.0
03/06:30am 19.4 17.7 16.2 82 1.9 ESE 20 28 11 15 1017.1 1017.1 0.0
03/06:00am 19.2 17.4 16.1 82 1.8 SE 20 32 11 17 1016.7 1016.7 0.0
03/05:30am 19.2 17.6 16.1 82 1.8 SE 19 32 10 17 1016.5 1016.5 0.0
03/05:00am 19.3 17.8 16.3 83 1.8 SE 19 32 10 17 1016.4 1016.4 0.0
03/04:30am 19.5 17.4 16.2 81 2.0 SE 22 33 12 18 1016.2 1016.2 0.0
03/04:00am 19.5 18.0 16.3 82 1.9 SE 19 30 10 16 1016.2 1016.2 0.0
03/03:30am 19.7 18.7 16.7 83 1.8 SE 17 26 9 14 1016.7 1016.7 0.0
03/03:00am 19.8 18.2 16.6 82 1.9 ESE 20 32 11 17 1016.7 1016.7 0.0
03/02:30am 19.9 17.8 16.3 80 2.2 SE 22 39 12 21 1016.9 1016.9 0.0
03/02:00am 20.0 18.7 16.8 82 1.9 SE 19 28 10 15 1017.2 1017.2 0.0
03/01:30am 19.7 17.8 16.7 83 1.8 SE 22 35 12 19 1017.4 1017.4 0.0
03/01:00am 19.7 17.6 16.3 81 2.0 ESE 22 33 12 18 1017.6 1017.6 0.0
03/12:30am 19.8 17.9 16.6 82 1.9 ESE 22 37 12 20 1017.7 1017.7 0.0
03/12:00am 19.8 17.9 16.6 82 1.9 ESE 22 37 12 20 1017.8 1017.8 0.0
 
Date/Time
EST
Temp
°C
App
Temp
°C
Dew
Point
°C
Rel
Hum
%
Delta-T
°C
Wind Press
QNH
hPa
Press
MSL
hPa
Rain since
9am
mm
Dir  Spd
km/h
Gust
km/h
Spd
kts
Gust
kts
02/11:30pm 19.8 17.5 16.6 82 1.9 SE 24 35 13 19 1018.1 1018.1 0.0
02/11:00pm 19.7 17.4 16.7 83 1.8 SE 24 35 13 19 1018.3 1018.3 0.0
02/10:30pm 19.8 17.9 16.6 82 1.9 ESE 22 37 12 20 1018.3 1018.3 0.0
02/10:00pm 20.0 18.1 16.6 81 2.0 ESE 22 35 12 19 1018.5 1018.5 0.0
02/09:30pm 20.3 18.4 16.7 80 2.2 ESE 22 32 12 17 1018.6 1018.6 0.0
02/09:00pm 20.4 18.2 16.0 76 2.6 ESE 22 33 12 18 1018.7 1018.7 0.0
02/08:30pm 20.6 18.3 16.6 78 2.4 ESE 24 35 13 19 1018.5 1018.5 0.0
02/08:00pm 20.6 17.8 16.4 77 2.5 ESE 26 39 14 21 1018.6 1018.6 0.0
02/07:30pm 20.7 18.0 16.5 77 2.5 ESE 26 39 14 21 1018.4 1018.4 0.0
02/07:00pm 20.7 18.0 16.5 77 2.5 ESE 26 39 14 21 1017.9 1017.9 0.0
02/06:30pm 20.8 17.6 16.4 76 2.7 E 28 37 15 20 1017.5 1017.5 0.0
02/06:00pm 21.1 18.9 16.9 77 2.6 E 24 37 13 20 1017.3 1017.3 0.0
02/05:30pm 21.0 19.0 16.4 75 2.8 ESE 22 35 12 19 1017.1 1017.1 0.0
02/05:00pm 21.4 19.5 16.6 74 2.9 ESE 22 32 12 17 1017.3 1017.3 0.0
02/04:30pm 21.7 19.6 16.2 71 3.3 E 22 32 12 17 1017.2 1017.2 0.0
02/04:00pm 22.1 20.5 16.1 69 3.6 E 19 32 10 17 1017.0 1017.0 0.0
02/03:30pm 22.6 21.1 16.2 67 3.9 ESE 19 32 10 17 1017.0 1017.0 0.0
02/03:00pm 22.7 20.1 16.0 66 4.0 ESE 24 33 13 18 1017.1 1017.1 0.0
02/02:30pm 23.0 20.6 16.3 66 4.1 ESE 24 33 13 18 1017.1 1017.1 0.0
02/02:00pm 23.2 20.8 16.5 66 4.1 ESE 24 35 13 19 1017.2 1017.2 0.0
02/01:30pm 23.5 21.4 16.3 64 4.4 ESE 22 32 12 17 1017.8 1017.8 0.0
02/01:00pm 23.2 21.0 16.0 64 4.3 ESE 22 39 12 21 1018.3 1018.3 0.0
02/12:30pm 23.0 20.5 16.1 65 4.2 SE 24 35 13 19 1018.9 1018.9 0.0
02/12:00pm 22.7 20.1 15.8 65 4.1 SE 24 35 13 19 1019.3 1019.3 0.0
02/11:30am 22.1 20.1 15.5 66 3.9 SE 20 35 11 19 1019.8 1019.8 0.0
02/11:00am 22.3 20.5 15.6 66 4.0 SE 19 32 10 17 1020.2 1020.2 0.0
02/10:30am 22.0 20.5 15.4 66 3.9 SE 17 30 9 16 1020.7 1020.7 0.0
02/10:00am 21.3 19.6 14.7 66 3.9 SE 17 28 9 15 1020.9 1020.9 0.0
02/09:30am 20.8 19.5 14.7 68 3.6 SSE 15 28 8 15 1020.7 1020.7 0.0
02/09:00am 19.9 19.0 14.9 73 2.9 SSE 13 22 7 12 1020.8 1020.8 0.0
02/08:30am 19.1 18.3 14.1 73 2.9 S 11 20 6 11 1020.6 1020.6 0.0
02/08:00am 18.1 16.8 13.6 75 2.5 S 13 20 7 11 1020.3 1020.3 0.0
02/07:30am 17.7 17.3 14.0 79 2.1 S 9 17 5 9 1019.8 1019.8 0.0
02/07:00am 17.2 16.7 13.9 81 1.9 S 9 15 5 8 1019.5 1019.5 0.0
02/06:30am 17.3 16.4 13.6 79 2.1 S 11 19 6 10 1019.1 1019.1 0.0
02/06:00am 17.3 16.3 13.4 78 2.2 S 11 20 6 11 1018.9 1018.9 0.0
02/05:30am 17.5 16.0 13.2 76 2.4 SSE 13 20 7 11 1018.9 1018.9 0.0
02/05:00am 17.7 16.7 13.4 76 2.4 SSE 11 19 6 10 1018.9 1018.9 0.0
02/04:30am 17.6 17.1 13.9 79 2.1 S 9 15 5 8 1018.9 1018.9 0.0
02/04:00am 17.7 17.0 14.2 80 2.0 S 11 20 6 11 1019.1 1019.1 0.0
02/03:30am 17.5 16.8 14.2 81 1.9 S 11 20 6 11 1019.1 1019.1 0.0
02/03:00am 17.4 16.6 14.1 81 1.9 S 11 19 6 10 1019.1 1019.1 0.0
02/02:30am 17.7 16.6 14.4 81 1.9 S 13 20 7 11 1018.8 1018.8 0.0
02/02:00am 18.2 17.5 14.3 78 2.2 SSE 11 19 6 10 1019.2 1019.2 0.0
02/01:30am 18.7 17.8 14.8 78 2.3 SSE 13 22 7 12 1019.3 1019.3 0.0
02/01:00am 18.8 18.3 14.9 78 2.3 SSE 11 20 6 11 1019.5 1019.5 0.0
02/12:30am 19.6 18.5 15.3 76 2.5 SE 15 28 8 15 1019.8 1019.8 0.0
02/12:00am 19.2 18.8 16.2 83 1.8 SSE 13 30 7 16 1020.0 1020.0 0.0
 
Date/Time
EST
Temp
°C
App
Temp
°C
Dew
Point
°C
Rel
Hum
%
Delta-T
°C
Wind Press
QNH
hPa
Press
MSL
hPa
Rain since
9am
mm
Dir  Spd
km/h
Gust
km/h
Spd
kts
Gust
kts
01/11:30pm 18.6 18.4 15.7 83 1.7 S 11 19 6 10 1020.1 1020.1 0.0
01/11:00pm 19.1 18.9 15.6 80 2.1 SSE 11 22 6 12 1020.1 1020.1 0.0
01/10:30pm 20.1 18.9 16.1 78 2.4 SE 17 33 9 18 1020.3 1020.3 0.0
01/10:00pm 20.3 17.7 15.9 76 2.6 SE 24 35 13 19 1020.3 1020.3 0.0

Other formats

Comma delimited format used in spreadsheet applications
http://www.bom.gov.au/fwo/IDQ60801/IDQ60801.95296.axf

JavaScript Object Notation format (JSON) in row-major order
http://www.bom.gov.au/fwo/IDQ60801/IDQ60801.95296.json

Data quality

Most of these data are generated automatically and are frequently updated. Quality checks on data are not normally performed. It is possible for incorrect values to appear. Refer to information at About Latest Weather Observations and please check the disclaimer before using these data.